Time;durP1;ratioP1;P1;durP2;ratioP2;P2;SDS_P1;SDS_P2;PMS_P1;PMS_P2;Temp;Humidity;BMP_temperature;BMP_pressure;BME280_temperature;BME280_humidity;BME280_pressure;Samples;Min_cycle;Max_cycle;Signal;HPM_P1;HPM_P2
2022/12/03 00:00:16;;;;;;;10.73;5.43;;;;;;;;;;2106577;28;20098;-45
2022/12/03 00:01:17;;;;;;;13.48;7.40;;;;;;;;;;2106685;28;20048;-44
2022/12/03 00:02:18;;;;;;;12.57;7.05;;;;;;;;;;2106556;28;20135;-44
2022/12/03 00:03:20;;;;;;;13.10;7.13;;;;;;;;;;2106417;28;20082;-44
2022/12/03 00:04:21;;;;;;;12.57;6.97;;;;;;;;;;2106545;28;20050;-44
2022/12/03 00:05:22;;;;;;;10.73;6.75;;;;;;;;;;2106718;28;20052;-45
2022/12/03 00:06:23;;;;;;;13.57;6.10;;;;;;;;;;2106459;28;20051;-45
2022/12/03 00:07:24;;;;;;;10.70;6.80;;;;;;;;;;2106478;28;20462;-45
2022/12/03 00:08:26;;;;;;;13.35;7.03;;;;;;;;;;2106640;28;20097;-45
2022/12/03 00:09:26;;;;;;;14.80;7.18;;;;;;;;;;2106761;28;20048;-45
2022/12/03 00:10:28;;;;;;;13.27;7.07;;;;;;;;;;2106508;28;20201;-45
2022/12/03 00:11:29;;;;;;;12.23;7.22;;;;;;;;;;2106698;28;20048;-45
2022/12/03 00:12:30;;;;;;;11.80;6.13;;;;;;;;;;2106428;28;20101;-45
2022/12/03 00:13:32;;;;;;;10.23;6.38;;;;;;;;;;2109954;28;20039;-41
2022/12/03 00:14:33;;;;;;;11.63;5.47;;;;;;;;;;2114977;28;20051;-40
2022/12/03 00:15:34;;;;;;;13.15;7.07;;;;;;;;;;2114756;28;20117;-42
2022/12/03 00:16:35;;;;;;;12.00;7.10;;;;;;;;;;2115042;28;20050;-40
2022/12/03 00:17:36;;;;;;;13.45;7.40;;;;;;;;;;2114918;28;20279;-40
2022/12/03 00:18:37;;;;;;;11.63;6.00;;;;;;;;;;2114981;28;20047;-40
2022/12/03 00:19:38;;;;;;;12.70;6.55;;;;;;;;;;2114857;28;20484;-40
2022/12/03 00:20:39;;;;;;;10.40;5.78;;;;;;;;;;2114967;28;20082;-45
2022/12/03 00:21:40;;;;;;;10.43;6.45;;;;;;;;;;2114876;28;20047;-45
2022/12/03 00:22:41;;;;;;;17.55;7.00;;;;;;;;;;2114933;28;20518;-45
2022/12/03 00:23:42;;;;;;;11.57;6.85;;;;;;;;;;2114941;28;20047;-46
2022/12/03 00:24:43;;;;;;;12.02;6.22;;;;;;;;;;2114799;28;20515;-46
2022/12/03 00:25:44;;;;;;;11.38;7.00;;;;;;;;;;2114851;28;20408;-46
2022/12/03 00:26:45;;;;;;;11.57;5.97;;;;;;;;;;2114842;28;20099;-45
2022/12/03 00:27:46;;;;;;;11.15;6.40;;;;;;;;;;2114895;28;20062;-46
2022/12/03 00:28:48;;;;;;;11.27;6.03;;;;;;;;;;2114871;28;20496;-45
2022/12/03 00:29:49;;;;;;;12.50;5.90;;;;;;;;;;2114919;28;20043;-45
2022/12/03 00:30:52;;;;;;;9.88;5.70;;;;;;;;;;2114844;28;20056;-45
2022/12/03 00:31:53;;;;;;;12.52;6.65;;;;;;;;;;2114564;28;20047;-45
2022/12/03 00:32:54;;;;;;;11.50;5.67;;;;;;;;;;2106421;28;20547;-46
2022/12/03 00:33:55;;;;;;;11.38;6.00;;;;;;;;;;2106290;28;20048;-46
2022/12/03 00:34:56;;;;;;;14.27;5.67;;;;;;;;;;2106462;28;20052;-46
2022/12/03 00:35:57;;;;;;;12.15;6.05;;;;;;;;;;2106392;28;20282;-45
2022/12/03 00:36:58;;;;;;;12.47;5.83;;;;;;;;;;2106325;28;20079;-45
2022/12/03 00:37:59;;;;;;;11.73;6.10;;;;;;;;;;2106543;28;20047;-41
2022/12/03 00:39:00;;;;;;;11.10;5.10;;;;;;;;;;2106590;28;20390;-41
2022/12/03 00:40:02;;;;;;;12.98;6.10;;;;;;;;;;2106231;28;20097;-41
2022/12/03 00:41:03;;;;;;;14.40;6.20;;;;;;;;;;2106492;28;20097;-41
2022/12/03 00:42:04;;;;;;;12.85;6.20;;;;;;;;;;2106364;28;20542;-41
2022/12/03 00:43:05;;;;;;;12.57;6.03;;;;;;;;;;2106095;28;20409;-41
2022/12/03 00:44:07;;;;;;;9.38;4.88;;;;;;;;;;2106256;28;20040;-41
2022/12/03 00:45:08;;;;;;;12.27;5.43;;;;;;;;;;2106402;28;20041;-41
2022/12/03 00:46:10;;;;;;;12.55;5.47;;;;;;;;;;2106198;28;20097;-41
2022/12/03 00:47:11;;;;;;;11.80;5.78;;;;;;;;;;2106235;28;20044;-41
2022/12/03 00:48:12;;;;;;;11.15;5.65;;;;;;;;;;2106327;28;20051;-41
2022/12/03 00:49:13;;;;;;;12.40;5.43;;;;;;;;;;2106190;28;20048;-41
2022/12/03 00:50:14;;;;;;;11.77;5.83;;;;;;;;;;2106326;28;20048;-41
2022/12/03 00:51:15;;;;;;;10.77;5.35;;;;;;;;;;2106142;28;20484;-41
2022/12/03 00:52:16;;;;;;;10.27;4.90;;;;;;;;;;2106231;28;20079;-41
2022/12/03 00:53:17;;;;;;;11.25;5.75;;;;;;;;;;2106256;28;20048;-41
2022/12/03 00:54:18;;;;;;;10.30;5.53;;;;;;;;;;2106351;28;20048;-41
2022/12/03 00:55:19;;;;;;;8.65;5.25;;;;;;;;;;2106232;28;20052;-41
2022/12/03 00:56:20;;;;;;;10.10;5.90;;;;;;;;;;2106365;28;20048;-41
2022/12/03 00:57:21;;;;;;;8.55;4.85;;;;;;;;;;2106183;28;20055;-41
2022/12/03 00:58:22;;;;;;;8.57;5.90;;;;;;;;;;2106203;28;20462;-41
2022/12/03 00:59:24;;;;;;;10.25;5.68;;;;;;;;;;2106272;28;20052;-41
2022/12/03 01:00:25;;;;;;;10.38;5.43;;;;;;;;;;2106155;28;20051;-41
2022/12/03 01:01:26;;;;;;;11.75;6.00;;;;;;;;;;2106315;28;20059;-41
2022/12/03 01:02:27;;;;;;;9.23;5.40;;;;;;;;;;2106123;28;20124;-41
2022/12/03 01:03:28;;;;;;;9.57;5.80;;;;;;;;;;2106048;28;20385;-41
2022/12/03 01:04:29;;;;;;;15.30;6.30;;;;;;;;;;2106229;28;20125;-41
2022/12/03 01:05:31;;;;;;;12.60;6.13;;;;;;;;;;2106273;28;20404;-41
2022/12/03 01:06:31;;;;;;;8.57;4.97;;;;;;;;;;2106211;28;20056;-41
2022/12/03 01:07:33;;;;;;;10.30;5.53;;;;;;;;;;2106124;28;20476;-41
2022/12/03 01:08:34;;;;;;;10.43;5.68;;;;;;;;;;2106224;28;20059;-41
2022/12/03 01:09:35;;;;;;;14.27;5.60;;;;;;;;;;2107575;28;20043;-41
2022/12/03 01:10:36;;;;;;;11.95;6.53;;;;;;;;;;2114683;28;20259;-41
2022/12/03 01:11:37;;;;;;;11.13;5.47;;;;;;;;;;2114792;28;20050;-45
2022/12/03 01:12:38;;;;;;;12.77;6.28;;;;;;;;;;2114744;28;20050;-45
2022/12/03 01:13:39;;;;;;;9.85;5.60;;;;;;;;;;2114524;28;20047;-45
2022/12/03 01:14:40;;;;;;;9.52;5.70;;;;;;;;;;2114536;28;20476;-45
2022/12/03 01:15:41;;;;;;;11.45;6.00;;;;;;;;;;2114555;28;20052;-46
2022/12/03 01:16:43;;;;;;;10.40;5.57;;;;;;;;;;2114453;28;20130;-45
2022/12/03 01:17:44;;;;;;;8.48;4.85;;;;;;;;;;2114531;28;20051;-45
2022/12/03 01:18:45;;;;;;;10.98;6.32;;;;;;;;;;2114605;28;20047;-45
2022/12/03 01:19:46;;;;;;;10.10;5.70;;;;;;;;;;2114550;28;20055;-45
2022/12/03 01:20:49;;;;;;;8.43;5.32;;;;;;;;;;2114682;28;20316;-47
2022/12/03 01:21:50;;;;;;;10.37;6.03;;;;;;;;;;2114493;28;20079;-47
2022/12/03 01:22:51;;;;;;;11.15;6.15;;;;;;;;;;2114600;28;20052;-41
2022/12/03 01:23:52;;;;;;;8.60;4.53;;;;;;;;;;2114408;28;20112;-41
2022/12/03 01:24:53;;;;;;;15.80;6.13;;;;;;;;;;2114463;28;20048;-41
2022/12/03 01:25:55;;;;;;;13.18;5.72;;;;;;;;;;2114512;28;20094;-41
2022/12/03 01:26:56;;;;;;;10.88;5.95;;;;;;;;;;2114560;28;20092;-41
2022/12/03 01:27:57;;;;;;;10.38;5.80;;;;;;;;;;2114489;28;20039;-41
2022/12/03 01:28:58;;;;;;;10.48;5.38;;;;;;;;;;2114727;28;20035;-41
2022/12/03 01:30:00;;;;;;;9.88;5.80;;;;;;;;;;2114424;28;20187;-41
2022/12/03 01:32:20;;;;;;;9.68;5.70;;;;;;;;;;2109622;28;20046;-41
2022/12/03 01:33:21;;;;;;;13.43;6.33;;;;;;;;;;2106088;28;20055;-41
2022/12/03 01:34:23;;;;;;;9.10;5.70;;;;;;;;;;2105971;28;20057;-41
2022/12/03 01:35:24;;;;;;;9.27;5.50;;;;;;;;;;2106055;28;20051;-41
2022/12/03 01:36:25;;;;;;;15.27;5.20;;;;;;;;;;2106187;28;20052;-45
2022/12/03 01:37:26;;;;;;;10.32;6.05;;;;;;;;;;2105949;28;20094;-45
2022/12/03 01:38:27;;;;;;;12.75;5.72;;;;;;;;;;2105997;28;20052;-46
2022/12/03 01:39:28;;;;;;;11.15;5.60;;;;;;;;;;2106048;28;20087;-45
2022/12/03 01:40:29;;;;;;;12.30;6.45;;;;;;;;;;2106013;28;20051;-46
2022/12/03 01:41:31;;;;;;;10.07;5.40;;;;;;;;;;2105905;28;20040;-45
2022/12/03 01:42:33;;;;;;;12.23;6.20;;;;;;;;;;2105826;28;20493;-45
2022/12/03 01:43:34;;;;;;;12.77;5.28;;;;;;;;;;2105941;28;20067;-45
2022/12/03 01:44:36;;;;;;;10.52;5.50;;;;;;;;;;2105865;28;20113;-46
2022/12/03 01:45:38;;;;;;;11.27;6.03;;;;;;;;;;2105923;28;20044;-45
2022/12/03 01:46:40;;;;;;;15.35;6.10;;;;;;;;;;2106366;28;20044;-41
2022/12/03 01:47:41;;;;;;;10.50;5.50;;;;;;;;;;2105739;28;20048;-41
2022/12/03 01:48:42;;;;;;;11.02;4.65;;;;;;;;;;2106181;28;20048;-41
2022/12/03 01:49:45;;;;;;;13.32;6.45;;;;;;;;;;2105909;28;20065;-41
2022/12/03 01:50:46;;;;;;;9.52;4.57;;;;;;;;;;2105935;28;20059;-41
2022/12/03 01:51:48;;;;;;;10.17;5.83;;;;;;;;;;2105926;28;20106;-41
2022/12/03 01:52:50;;;;;;;10.30;5.55;;;;;;;;;;2105749;28;20376;-41
2022/12/03 01:53:51;;;;;;;12.48;5.82;;;;;;;;;;2105806;28;20044;-41
2022/12/03 01:54:53;;;;;;;9.77;5.63;;;;;;;;;;2105873;28;20048;-41
2022/12/03 01:55:54;;;;;;;9.00;5.82;;;;;;;;;;2106123;28;20047;-41
2022/12/03 01:56:55;;;;;;;9.23;5.28;;;;;;;;;;2105764;28;20044;-41
2022/12/03 01:57:58;;;;;;;13.27;7.30;;;;;;;;;;2105874;28;20051;-41
2022/12/03 01:58:59;;;;;;;8.73;4.63;;;;;;;;;;2105804;28;20404;-41
2022/12/03 02:00:01;;;;;;;10.17;5.33;;;;;;;;;;2105918;28;20044;-41
2022/12/03 02:01:06;;;;;;;11.77;5.45;;;;;;;;;;2105747;28;20469;-41
2022/12/03 02:02:11;;;;;;;7.65;4.55;;;;;;;;;;2105802;28;20507;-41
2022/12/03 02:03:16;;;;;;;9.07;5.03;;;;;;;;;;2105680;28;20055;-41
2022/12/03 02:04:18;;;;;;;10.98;5.20;;;;;;;;;;2105807;28;20052;-41
2022/12/03 02:05:20;;;;;;;9.18;5.03;;;;;;;;;;2105811;28;20056;-41
2022/12/03 02:06:22;;;;;;;8.23;5.05;;;;;;;;;;2111687;28;20052;-41
2022/12/03 02:07:24;;;;;;;8.75;4.70;;;;;;;;;;2114094;28;20052;-41
2022/12/03 02:08:26;;;;;;;9.63;4.65;;;;;;;;;;2114238;28;20052;-41
2022/12/03 02:09:27;;;;;;;8.95;5.38;;;;;;;;;;2114167;28;20455;-41
2022/12/03 02:10:30;;;;;;;10.10;5.35;;;;;;;;;;2114131;28;20048;-41
2022/12/03 02:11:32;;;;;;;9.50;5.10;;;;;;;;;;2114228;28;20051;-41
2022/12/03 02:12:35;;;;;;;9.52;5.10;;;;;;;;;;2114239;28;20052;-42
2022/12/03 02:13:36;;;;;;;9.38;4.50;;;;;;;;;;2114130;28;20051;-41
2022/12/03 02:14:37;;;;;;;11.68;5.35;;;;;;;;;;2114113;28;20044;-41
2022/12/03 02:15:39;;;;;;;9.82;5.53;;;;;;;;;;2114274;28;20069;-41
2022/12/03 02:16:41;;;;;;;11.85;4.45;;;;;;;;;;2114277;28;20052;-41
2022/12/03 02:17:42;;;;;;;7.88;5.07;;;;;;;;;;2114077;28;20131;-41
2022/12/03 02:18:43;;;;;;;8.68;4.93;;;;;;;;;;2114197;28;20051;-41
2022/12/03 02:19:45;;;;;;;9.27;4.82;;;;;;;;;;2114324;28;20385;-41
2022/12/03 02:20:51;;;;;;;6.90;3.45;;;;;;;;;;2114168;28;20050;-41
2022/12/03 02:21:54;;;;;;;8.80;5.03;;;;;;;;;;2114148;28;20484;-41
2022/12/03 02:22:59;;;;;;;7.47;4.30;;;;;;;;;;2114114;28;20043;-41
2022/12/03 02:24:03;;;;;;;11.02;5.18;;;;;;;;;;2113899;28;20506;-41
2022/12/03 02:25:10;;;;;;;10.40;5.18;;;;;;;;;;2114049;28;20058;-41
2022/12/03 02:26:11;;;;;;;8.20;4.60;;;;;;;;;;2114110;28;20035;-41
2022/12/03 02:27:12;;;;;;;8.82;4.97;;;;;;;;;;2114151;28;20112;-41
2022/12/03 02:28:13;;;;;;;9.68;5.32;;;;;;;;;;2114078;28;20039;-41
2022/12/03 02:29:14;;;;;;;9.63;4.47;;;;;;;;;;2114454;28;20047;-46
2022/12/03 02:30:16;;;;;;;10.50;4.60;;;;;;;;;;2114099;28;20054;-46
2022/12/03 02:31:17;;;;;;;9.73;4.55;;;;;;;;;;2114133;28;20054;-46
2022/12/03 02:32:19;;;;;;;8.95;4.55;;;;;;;;;;2110319;28;20457;-45
2022/12/03 02:33:19;;;;;;;11.85;4.40;;;;;;;;;;2105858;28;20048;-41
2022/12/03 02:34:34;;;;;;;9.98;5.20;;;;;;;;;;2105835;28;20134;-41
2022/12/03 02:35:36;;;;;;;9.32;5.22;;;;;;;;;;2105746;28;20059;-41
2022/12/03 02:36:38;;;;;;;10.82;5.00;;;;;;;;;;2105701;28;20093;-41
2022/12/03 02:37:39;;;;;;;8.43;4.45;;;;;;;;;;2105565;28;20047;-41
2022/12/03 02:38:40;;;;;;;10.13;4.32;;;;;;;;;;2105752;28;20048;-41
2022/12/03 02:39:43;;;;;;;9.82;4.88;;;;;;;;;;2105757;28;20055;-46
2022/12/03 02:40:46;;;;;;;10.20;4.68;;;;;;;;;;2105696;28;20101;-46
2022/12/03 02:43:06;;;;;;;9.30;4.70;;;;;;;;;;2105714;28;20289;-47
2022/12/03 02:44:07;;;;;;;7.13;4.70;;;;;;;;;;2106115;28;20476;-41
2022/12/03 02:45:10;;;;;;;10.53;4.90;;;;;;;;;;2107168;28;20044;-41
2022/12/03 02:46:11;;;;;;;7.60;4.50;;;;;;;;;;2106988;28;20496;-41
2022/12/03 02:47:12;;;;;;;8.75;5.07;;;;;;;;;;2107234;28;20044;-41
2022/12/03 02:48:15;;;;;;;10.80;4.88;;;;;;;;;;2107034;28;20056;-41
2022/12/03 02:49:17;;;;;;;8.07;4.97;;;;;;;;;;2107218;28;20485;-41
2022/12/03 02:50:19;;;;;;;6.93;3.70;;;;;;;;;;2107028;28;20150;-41
2022/12/03 02:51:20;;;;;;;7.55;4.40;;;;;;;;;;2107102;28;20059;-41
2022/12/03 02:52:21;;;;;;;7.40;4.00;;;;;;;;;;2106958;28;20091;-41
2022/12/03 02:53:23;;;;;;;8.35;4.00;;;;;;;;;;2107180;28;20067;-41
2022/12/03 02:54:24;;;;;;;7.82;4.88;;;;;;;;;;2107016;28;20051;-41
2022/12/03 02:55:26;;;;;;;11.82;6.15;;;;;;;;;;2107018;28;20466;-41
2022/12/03 02:56:34;;;;;;;13.30;5.20;;;;;;;;;;2107237;28;20051;-41
2022/12/03 02:57:37;;;;;;;10.02;5.18;;;;;;;;;;2106822;28;20048;-41
2022/12/03 02:58:39;;;;;;;9.40;5.10;;;;;;;;;;2107121;28;20047;-41
2022/12/03 02:59:40;;;;;;;11.57;4.88;;;;;;;;;;2106981;28;20040;-41
2022/12/03 03:00:42;;;;;;;9.90;5.03;;;;;;;;;;2107168;28;20051;-41
2022/12/03 03:01:43;;;;;;;10.70;5.18;;;;;;;;;;2107027;28;20451;-41
2022/12/03 03:02:44;;;;;;;9.40;5.33;;;;;;;;;;2113803;28;20043;-46
2022/12/03 03:03:46;;;;;;;9.50;5.38;;;;;;;;;;2115295;28;20048;-47
2022/12/03 03:04:47;;;;;;;10.95;5.05;;;;;;;;;;2115080;28;20062;-46
2022/12/03 03:05:49;;;;;;;8.45;4.55;;;;;;;;;;2114974;28;20298;-41
2022/12/03 03:06:50;;;;;;;9.43;4.88;;;;;;;;;;2115057;28;20040;-41
2022/12/03 03:07:51;;;;;;;9.93;4.25;;;;;;;;;;2114977;28;20041;-41
2022/12/03 03:08:53;;;;;;;8.75;5.40;;;;;;;;;;2114782;28;20077;-41
2022/12/03 03:09:54;;;;;;;8.95;4.13;;;;;;;;;;2115442;28;20047;-45
2022/12/03 03:10:56;;;;;;;11.40;5.70;;;;;;;;;;2115446;28;20044;-46
2022/12/03 03:11:58;;;;;;;8.05;4.75;;;;;;;;;;2115422;28;20446;-41
2022/12/03 03:13:00;;;;;;;9.00;5.07;;;;;;;;;;2115388;28;20043;-41
2022/12/03 03:14:01;;;;;;;8.93;4.63;;;;;;;;;;2115534;28;20040;-46
2022/12/03 03:15:03;;;;;;;12.30;5.18;;;;;;;;;;2115360;28;20564;-43
2022/12/03 03:16:05;;;;;;;9.82;5.65;;;;;;;;;;2115395;28;20051;-45
2022/12/03 03:17:06;;;;;;;9.95;4.47;;;;;;;;;;2115500;28;20096;-41
2022/12/03 03:18:07;;;;;;;9.40;5.25;;;;;;;;;;2115382;28;20043;-41
2022/12/03 03:19:08;;;;;;;9.35;5.38;;;;;;;;;;2115458;28;20050;-46
2022/12/03 03:20:10;;;;;;;9.77;5.00;;;;;;;;;;2115368;28;20052;-41
2022/12/03 03:21:11;;;;;;;12.25;5.35;;;;;;;;;;2111462;28;20047;-45
2022/12/03 03:22:12;;;;;;;8.40;5.22;;;;;;;;;;2106719;28;20495;-45
2022/12/03 03:23:15;;;;;;;10.25;4.85;;;;;;;;;;2107023;28;20105;-41
2022/12/03 03:24:16;;;;;;;10.32;5.75;;;;;;;;;;2106907;28;20059;-44
2022/12/03 03:25:19;;;;;;;10.32;4.80;;;;;;;;;;2106851;28;20070;-41
2022/12/03 03:26:20;;;;;;;11.55;5.60;;;;;;;;;;2106965;28;20055;-40
2022/12/03 03:27:22;;;;;;;8.43;5.30;;;;;;;;;;2106889;28;20058;-44
2022/12/03 03:28:24;;;;;;;10.35;5.68;;;;;;;;;;2106879;28;20052;-46
2022/12/03 03:29:25;;;;;;;11.77;5.25;;;;;;;;;;2106871;28;20417;-45
2022/12/03 03:30:26;;;;;;;9.18;4.85;;;;;;;;;;2106911;28;20105;-45
2022/12/03 03:31:27;;;;;;;12.77;5.87;;;;;;;;;;2106796;28;20193;-45
2022/12/03 03:32:29;;;;;;;9.45;5.75;;;;;;;;;;2111829;28;20050;-42
2022/12/03 03:33:31;;;;;;;11.68;5.25;;;;;;;;;;2115312;28;20097;-41
2022/12/03 03:34:32;;;;;;;9.70;5.55;;;;;;;;;;2115232;28;20043;-41
2022/12/03 03:35:33;;;;;;;9.45;5.82;;;;;;;;;;2115312;28;20048;-41
2022/12/03 03:36:34;;;;;;;12.20;5.97;;;;;;;;;;2115341;28;20050;-41
2022/12/03 03:37:35;;;;;;;9.60;5.97;;;;;;;;;;2115331;28;20043;-46
2022/12/03 03:38:36;;;;;;;11.35;5.95;;;;;;;;;;2115373;28;20280;-45
2022/12/03 03:39:38;;;;;;;9.27;4.22;;;;;;;;;;2115288;28;20048;-42
2022/12/03 03:40:39;;;;;;;9.23;5.70;;;;;;;;;;2115310;28;20752;-41
2022/12/03 03:41:41;;;;;;;8.93;5.47;;;;;;;;;;2115322;28;20067;-41
2022/12/03 03:42:42;;;;;;;10.68;5.88;;;;;;;;;;2115088;28;20045;-41
2022/12/03 03:43:44;;;;;;;11.20;6.07;;;;;;;;;;2115125;28;20504;-45
2022/12/03 03:44:46;;;;;;;;;;;;;;;;;;2115645;28;20483;-45
2022/12/03 03:45:48;;;;;;;9.27;4.53;;;;;;;;;;2115218;28;19920;-41
2022/12/03 03:46:49;;;;;;;10.68;5.85;;;;;;;;;;2115153;28;20084;-45
2022/12/03 03:47:50;;;;;;;9.05;5.32;;;;;;;;;;2115360;28;20048;-41
2022/12/03 03:48:51;;;;;;;13.48;6.28;;;;;;;;;;2115233;28;20052;-46
2022/12/03 03:49:52;;;;;;;8.88;4.13;;;;;;;;;;2115216;28;20411;-45
2022/12/03 03:50:54;;;;;;;11.65;5.60;;;;;;;;;;2115290;28;20058;-41
2022/12/03 03:51:55;;;;;;;7.45;4.43;;;;;;;;;;2115193;28;20047;-40
2022/12/03 03:52:56;;;;;;;8.48;5.43;;;;;;;;;;2115222;28;20093;-45
2022/12/03 03:53:57;;;;;;;10.73;5.70;;;;;;;;;;2115127;28;20039;-45
2022/12/03 03:54:58;;;;;;;8.00;4.70;;;;;;;;;;2114734;28;20040;-46
2022/12/03 03:55:59;;;;;;;10.37;6.20;;;;;;;;;;2115199;28;20412;-41
2022/12/03 03:57:00;;;;;;;9.52;4.45;;;;;;;;;;2115189;28;20556;-41
2022/12/03 03:58:02;;;;;;;13.27;6.13;;;;;;;;;;2115088;28;20072;-45
2022/12/03 03:59:03;;;;;;;11.80;5.28;;;;;;;;;;2114993;28;20039;-45
2022/12/03 04:00:06;;;;;;;11.82;5.68;;;;;;;;;;2115220;28;20054;-46
2022/12/03 04:01:07;;;;;;;13.50;5.90;;;;;;;;;;2114986;28;20529;-41
2022/12/03 04:02:15;;;;;;;11.03;6.10;;;;;;;;;;2115271;28;20123;-40
2022/12/03 04:03:16;;;;;;;10.05;4.32;;;;;;;;;;2115092;28;20288;-45
2022/12/03 04:04:18;;;;;;;8.30;5.20;;;;;;;;;;2115087;28;20051;-41
2022/12/03 04:05:20;;;;;;;10.13;5.50;;;;;;;;;;2115045;28;20043;-45
2022/12/03 04:06:21;;;;;;;12.52;5.55;;;;;;;;;;2115161;28;20408;-41
2022/12/03 04:07:22;;;;;;;8.98;5.00;;;;;;;;;;2114889;28;20087;-41
2022/12/03 04:08:23;;;;;;;13.95;4.43;;;;;;;;;;2115230;28;20494;-45
2022/12/03 04:09:24;;;;;;;9.20;4.70;;;;;;;;;;2114979;28;20101;-46
2022/12/03 04:13:04;;;;;;;11.85;5.78;;;;;;;;;;2115076;28;20043;-41
2022/12/03 04:14:05;;;;;;;;;;;;;;;;;;2115400;28;20050;-41
2022/12/03 04:15:07;;;;;;;8.95;4.13;;;;;;;;;;2115096;28;20018;-47
2022/12/03 04:16:08;;;;;;;11.45;5.82;;;;;;;;;;2114803;28;20051;-40
2022/12/03 04:17:09;;;;;;;10.00;5.60;;;;;;;;;;2115116;28;20047;-45
2022/12/03 04:19:29;;;;;;;10.80;4.45;;;;;;;;;;2114970;28;20052;-41
2022/12/03 06:16:10;;;;;;;12.04;6.11;;;;;;;;;;4259195;27;20331;-61
2022/12/03 06:17:11;;;;;;;;;;;;;;;;;;2130281;27;20544;-58
2022/12/03 06:18:12;;;;;;;11.63;5.53;;;;;;;;;;2129984;27;20007;-59
2022/12/03 06:19:13;;;;;;;12.98;6.05;;;;;;;;;;2129793;27;20062;-59
2022/12/03 06:20:15;;;;;;;13.70;5.63;;;;;;;;;;2129934;27;20407;-59
2022/12/03 06:21:16;;;;;;;14.27;6.80;;;;;;;;;;2129964;27;20091;-59
2022/12/03 06:22:17;;;;;;;10.70;5.50;;;;;;;;;;2129874;27;20096;-60
2022/12/03 06:23:18;;;;;;;13.27;6.60;;;;;;;;;;2129720;27;20051;-59
2022/12/03 06:24:19;;;;;;;15.82;6.90;;;;;;;;;;2129646;27;20556;-59
2022/12/03 06:25:20;;;;;;;10.55;5.40;;;;;;;;;;2129916;27;20043;-59
2022/12/03 06:26:21;;;;;;;15.23;7.22;;;;;;;;;;2129693;27;20110;-60
2022/12/03 06:27:22;;;;;;;12.30;5.60;;;;;;;;;;2130039;27;20082;-59
2022/12/03 06:28:23;;;;;;;15.25;8.10;;;;;;;;;;2129835;27;20108;-60
2022/12/03 06:29:24;;;;;;;15.57;7.93;;;;;;;;;;2129900;27;20051;-58
2022/12/03 06:30:25;;;;;;;14.77;7.57;;;;;;;;;;2129759;27;20074;-60
2022/12/03 06:31:27;;;;;;;16.20;7.35;;;;;;;;;;2129869;27;20200;-59
2022/12/03 06:32:28;;;;;;;14.57;8.68;;;;;;;;;;2129789;27;20073;-60
2022/12/03 06:33:29;;;;;;;13.07;7.47;;;;;;;;;;2129854;27;20091;-59
2022/12/03 06:34:31;;;;;;;16.30;8.65;;;;;;;;;;2129686;27;20497;-60
2022/12/03 06:35:32;;;;;;;11.77;5.97;;;;;;;;;;2129665;27;20042;-60
2022/12/03 06:36:33;;;;;;;13.20;7.80;;;;;;;;;;2129817;27;20082;-60
2022/12/03 06:37:34;;;;;;;13.75;6.90;;;;;;;;;;2129648;27;20062;-60
2022/12/03 06:38:35;;;;;;;15.57;7.50;;;;;;;;;;2129709;27;20138;-60
2022/12/03 06:39:36;;;;;;;12.65;6.63;;;;;;;;;;2129423;27;20049;-60
2022/12/03 06:40:37;;;;;;;12.23;7.60;;;;;;;;;;2129612;27;20320;-60
2022/12/03 06:41:38;;;;;;;13.68;7.88;;;;;;;;;;2129721;27;20057;-60
2022/12/03 06:42:39;;;;;;;14.10;6.53;;;;;;;;;;2129795;27;20053;-60
2022/12/03 06:43:40;;;;;;;12.77;7.55;;;;;;;;;;2129664;27;20287;-60
2022/12/03 06:44:41;;;;;;;16.40;9.20;;;;;;;;;;2129585;27;20047;-60
2022/12/03 06:45:42;;;;;;;17.52;8.43;;;;;;;;;;2129759;27;20079;-60
2022/12/03 06:46:49;;;;;;;15.45;9.07;;;;;;;;;;2129562;27;20047;-60
2022/12/03 06:47:50;;;;;;;17.13;8.50;;;;;;;;;;2129699;27;20043;-61
2022/12/03 06:48:51;;;;;;;14.55;7.68;;;;;;;;;;2129637;27;20046;-59
2022/12/03 06:49:52;;;;;;;16.60;8.68;;;;;;;;;;2129575;27;20426;-58
2022/12/03 06:50:53;;;;;;;1268.05;120.18;;;;;;;;;;2129582;27;20495;-58
2022/12/03 06:51:54;;;;;;;16.08;6.50;;;;;;;;;;2129728;27;20103;-58
2022/12/03 06:52:55;;;;;;;20.27;9.23;;;;;;;;;;2129489;27;20047;-59
2022/12/03 06:53:56;;;;;;;15.50;9.13;;;;;;;;;;2129565;27;20475;-60
2022/12/03 06:54:57;;;;;;;15.68;8.32;;;;;;;;;;2129450;27;20047;-59
2022/12/03 06:55:58;;;;;;;19.10;8.63;;;;;;;;;;2129656;27;20047;-59
2022/12/03 06:57:00;;;;;;;18.95;9.48;;;;;;;;;;2129580;27;20114;-58
2022/12/03 06:58:00;;;;;;;17.85;7.35;;;;;;;;;;2129544;27;20039;-59
2022/12/03 06:59:02;;;;;;;16.13;9.33;;;;;;;;;;2129585;27;20126;-58
2022/12/03 07:00:04;;;;;;;22.50;9.50;;;;;;;;;;2129538;27;20043;-58
2022/12/03 07:01:05;;;;;;;16.33;8.48;;;;;;;;;;2129552;27;20050;-61
2022/12/03 07:02:07;;;;;;;17.67;8.70;;;;;;;;;;2129407;27;20054;-59
2022/12/03 07:03:08;;;;;;;19.33;9.23;;;;;;;;;;2129629;27;20047;-61
2022/12/03 07:04:09;;;;;;;17.63;9.50;;;;;;;;;;2129374;27;20407;-60
2022/12/03 07:05:10;;;;;;;20.00;10.43;;;;;;;;;;2129587;27;20046;-60
2022/12/03 07:06:11;;;;;;;15.60;8.52;;;;;;;;;;2129597;27;20051;-60
2022/12/03 07:07:12;;;;;;;19.17;10.57;;;;;;;;;;2129546;27;20440;-60
2022/12/03 07:08:13;;;;;;;21.83;10.07;;;;;;;;;;2129482;27;20340;-60
2022/12/03 07:09:16;;;;;;;19.53;10.77;;;;;;;;;;2129380;27;20051;-60
2022/12/03 07:10:17;;;;;;;21.38;10.20;;;;;;;;;;2129470;27;20407;-59
2022/12/03 07:11:38;;;;;;;17.23;8.70;;;;;;;;;;2129384;27;20043;-58
2022/12/03 07:12:40;;;;;;;16.83;10.10;;;;;;;;;;2129525;27;20328;-60
2022/12/03 07:13:40;;;;;;;23.05;11.63;;;;;;;;;;2128979;27;20046;-60
2022/12/03 07:14:42;;;;;;;21.43;11.03;;;;;;;;;;2129442;27;20087;-60
2022/12/03 07:15:42;;;;;;;18.55;10.30;;;;;;;;;;2126239;27;20095;-58
2022/12/03 07:16:44;;;;;;;25.63;11.07;;;;;;;;;;2123794;28;20047;-60
2022/12/03 07:17:45;;;;;;;18.48;10.73;;;;;;;;;;2123783;28;20055;-60
2022/12/03 07:18:46;;;;;;;20.90;10.90;;;;;;;;;;2123671;28;20488;-59
2022/12/03 07:19:48;;;;;;;17.58;10.50;;;;;;;;;;2123631;28;20039;-60
2022/12/03 07:20:49;;;;;;;21.83;10.63;;;;;;;;;;2123700;28;20475;-60
2022/12/03 07:21:50;;;;;;;20.23;11.47;;;;;;;;;;2123845;28;20043;-60
2022/12/03 07:22:51;;;;;;;23.83;10.07;;;;;;;;;;2123563;28;20080;-60
2022/12/03 07:23:52;;;;;;;27.20;12.10;;;;;;;;;;2123693;28;20051;-60
2022/12/03 07:24:53;;;;;;;24.73;11.63;;;;;;;;;;2123478;28;20047;-61
2022/12/03 07:25:54;;;;;;;23.85;11.05;;;;;;;;;;2123602;28;20487;-60
2022/12/03 07:26:55;;;;;;;22.65;11.15;;;;;;;;;;2123651;28;20043;-60
2022/12/03 07:27:56;;;;;;;25.52;11.77;;;;;;;;;;2123743;28;20489;-60
2022/12/03 07:28:57;;;;;;;26.42;11.15;;;;;;;;;;2123653;28;20043;-60
2022/12/03 07:29:58;;;;;;;25.13;12.80;;;;;;;;;;2123547;28;20416;-60
2022/12/03 07:30:59;;;;;;;22.48;10.98;;;;;;;;;;2123709;28;20331;-60
2022/12/03 07:32:00;;;;;;;25.05;11.65;;;;;;;;;;2123561;28;20035;-58
2022/12/03 07:33:02;;;;;;;22.13;11.20;;;;;;;;;;2123757;28;20062;-59
2022/12/03 07:34:03;;;;;;;23.73;9.27;;;;;;;;;;2123433;28;20050;-59
2022/12/03 07:35:06;;;;;;;22.90;12.48;;;;;;;;;;2123644;28;20183;-61
2022/12/03 07:36:08;;;;;;;23.55;12.13;;;;;;;;;;2123577;28;20043;-59
2022/12/03 07:37:09;;;;;;;24.83;10.95;;;;;;;;;;2123720;28;20099;-61
2022/12/03 07:38:10;;;;;;;24.60;12.48;;;;;;;;;;2123443;28;20047;-61
2022/12/03 07:39:12;;;;;;;25.58;13.23;;;;;;;;;;2123426;28;20050;-59
2022/12/03 07:40:13;;;;;;;25.67;12.82;;;;;;;;;;2123544;28;20096;-59
2022/12/03 07:41:14;;;;;;;30.40;12.77;;;;;;;;;;2123393;28;20111;-58
2022/12/03 07:42:15;;;;;;;22.05;11.73;;;;;;;;;;2123582;28;20047;-59
2022/12/03 07:43:16;;;;;;;22.77;12.77;;;;;;;;;;2123619;28;20077;-58
2022/12/03 07:44:17;;;;;;;23.58;12.65;;;;;;;;;;2123393;28;20401;-59
2022/12/03 07:45:18;;;;;;;19.67;11.68;;;;;;;;;;2123512;28;20047;-59
2022/12/03 07:46:19;;;;;;;24.20;11.95;;;;;;;;;;2123629;28;20047;-59
2022/12/03 07:47:20;;;;;;;27.08;12.45;;;;;;;;;;2123353;28;20043;-59
2022/12/03 07:48:22;;;;;;;23.58;11.82;;;;;;;;;;2123620;28;20047;-60
2022/12/03 07:49:23;;;;;;;26.27;12.10;;;;;;;;;;2123473;28;20051;-58
2022/12/03 07:50:27;;;;;;;25.05;11.73;;;;;;;;;;2123537;28;20096;-58
2022/12/03 07:51:28;;;;;;;23.50;12.32;;;;;;;;;;2123477;28;20047;-61
2022/12/03 07:52:32;;;;;;;19.58;10.65;;;;;;;;;;2123446;28;20133;-59
2022/12/03 07:53:34;;;;;;;22.53;12.13;;;;;;;;;;2123370;28;20090;-59
2022/12/03 07:54:35;;;;;;;;;;;;;;;;;;2123893;28;20488;-59
2022/12/03 07:55:36;;;;;;;18.90;9.98;;;;;;;;;;2123402;28;19923;-59
2022/12/03 07:56:37;;;;;;;23.42;11.77;;;;;;;;;;2123368;28;20048;-58
2022/12/03 07:57:38;;;;;;;24.93;11.67;;;;;;;;;;2123555;28;20573;-59
2022/12/03 07:58:39;;;;;;;24.77;12.25;;;;;;;;;;2123669;28;20282;-60
2022/12/03 07:59:40;;;;;;;21.35;9.75;;;;;;;;;;2123302;28;20380;-60
2022/12/03 08:00:41;;;;;;;21.05;11.30;;;;;;;;;;2123404;28;20039;-58
2022/12/03 08:01:43;;;;;;;17.63;8.97;;;;;;;;;;2123574;28;20376;-61
2022/12/03 08:02:44;;;;;;;22.55;11.93;;;;;;;;;;2123323;28;20400;-58
2022/12/03 08:03:45;;;;;;;20.70;12.20;;;;;;;;;;2123525;28;20043;-60
2022/12/03 08:04:46;;;;;;;25.50;12.75;;;;;;;;;;2123407;28;20282;-61
2022/12/03 08:05:48;;;;;;;23.30;13.48;;;;;;;;;;2123452;28;20100;-59
2022/12/03 08:06:49;;;;;;;21.77;9.93;;;;;;;;;;2123373;28;20047;-58